sensor_id;sensor_type;location;lat;lon;timestamp;P1;durP1;ratioP1;P2;durP2;ratioP2
422;SDS011;198;48.752;9.180;2023-06-22T00:01:57;12.50;;;7.47;;
422;SDS011;198;48.752;9.180;2023-06-22T00:04:23;16.90;;;7.00;;
422;SDS011;198;48.752;9.180;2023-06-22T00:06:49;15.77;;;7.87;;
422;SDS011;198;48.752;9.180;2023-06-22T00:09:14;12.40;;;7.30;;
422;SDS011;198;48.752;9.180;2023-06-22T00:11:40;13.27;;;6.53;;
422;SDS011;198;48.752;9.180;2023-06-22T00:14:05;15.83;;;6.90;;
422;SDS011;198;48.752;9.180;2023-06-22T00:16:31;15.73;;;6.33;;
422;SDS011;198;48.752;9.180;2023-06-22T00:18:57;20.47;;;7.43;;
422;SDS011;198;48.752;9.180;2023-06-22T00:21:25;12.77;;;7.77;;
422;SDS011;198;48.752;9.180;2023-06-22T00:23:51;21.23;;;6.90;;
422;SDS011;198;48.752;9.180;2023-06-22T00:26:16;13.47;;;7.47;;
422;SDS011;198;48.752;9.180;2023-06-22T00:28:42;14.43;;;6.07;;
422;SDS011;198;48.752;9.180;2023-06-22T00:31:07;15.53;;;7.90;;
422;SDS011;198;48.752;9.180;2023-06-22T00:33:33;12.70;;;6.23;;
422;SDS011;198;48.752;9.180;2023-06-22T00:35:58;13.87;;;6.83;;
422;SDS011;198;48.752;9.180;2023-06-22T00:38:24;12.67;;;6.17;;
422;SDS011;198;48.752;9.180;2023-06-22T00:40:49;16.50;;;7.10;;
422;SDS011;198;48.752;9.180;2023-06-22T00:43:15;18.17;;;8.43;;
422;SDS011;198;48.752;9.180;2023-06-22T00:45:41;14.13;;;6.50;;
422;SDS011;198;48.752;9.180;2023-06-22T00:48:06;17.50;;;7.23;;
422;SDS011;198;48.752;9.180;2023-06-22T00:50:33;11.63;;;6.80;;
422;SDS011;198;48.752;9.180;2023-06-22T00:53:00;17.37;;;6.73;;
422;SDS011;198;48.752;9.180;2023-06-22T00:55:32;13.27;;;7.30;;
422;SDS011;198;48.752;9.180;2023-06-22T00:58:02;12.10;;;6.90;;
422;SDS011;198;48.752;9.180;2023-06-22T01:00:30;11.13;;;6.47;;
422;SDS011;198;48.752;9.180;2023-06-22T01:02:57;12.70;;;8.00;;
422;SDS011;198;48.752;9.180;2023-06-22T01:05:23;15.00;;;5.73;;
422;SDS011;198;48.752;9.180;2023-06-22T01:07:56;8.10;;;5.23;;
422;SDS011;198;48.752;9.180;2023-06-22T01:16:02;8.73;;;5.13;;
422;SDS011;198;48.752;9.180;2023-06-22T01:19:28;9.53;;;5.43;;
422;SDS011;198;48.752;9.180;2023-06-22T01:22:08;13.10;;;6.50;;
422;SDS011;198;48.752;9.180;2023-06-22T01:27:22;12.50;;;4.93;;
422;SDS011;198;48.752;9.180;2023-06-22T01:29:57;8.67;;;4.97;;
422;SDS011;198;48.752;9.180;2023-06-22T01:32:31;12.03;;;5.70;;
422;SDS011;198;48.752;9.180;2023-06-22T01:35:00;10.00;;;5.60;;
422;SDS011;198;48.752;9.180;2023-06-22T01:37:27;15.67;;;6.70;;
422;SDS011;198;48.752;9.180;2023-06-22T01:39:54;11.20;;;5.17;;
422;SDS011;198;48.752;9.180;2023-06-22T01:42:20;9.13;;;5.37;;
422;SDS011;198;48.752;9.180;2023-06-22T01:44:48;9.93;;;5.83;;
422;SDS011;198;48.752;9.180;2023-06-22T01:47:14;10.90;;;6.80;;
422;SDS011;198;48.752;9.180;2023-06-22T01:49:41;8.37;;;5.10;;
422;SDS011;198;48.752;9.180;2023-06-22T01:52:06;11.40;;;5.17;;
422;SDS011;198;48.752;9.180;2023-06-22T01:54:32;9.87;;;5.60;;
422;SDS011;198;48.752;9.180;2023-06-22T01:56:58;20.87;;;6.97;;
422;SDS011;198;48.752;9.180;2023-06-22T01:59:29;10.90;;;5.80;;
422;SDS011;198;48.752;9.180;2023-06-22T02:02:18;10.37;;;6.40;;
422;SDS011;198;48.752;9.180;2023-06-22T02:05:19;14.50;;;5.50;;
422;SDS011;198;48.752;9.180;2023-06-22T02:07:47;12.30;;;5.20;;
422;SDS011;198;48.752;9.180;2023-06-22T02:10:17;10.13;;;4.50;;
422;SDS011;198;48.752;9.180;2023-06-22T02:12:45;10.03;;;6.07;;
422;SDS011;198;48.752;9.180;2023-06-22T02:15:12;12.30;;;6.23;;
422;SDS011;198;48.752;9.180;2023-06-22T02:17:39;16.50;;;8.60;;
422;SDS011;198;48.752;9.180;2023-06-22T02:20:11;13.80;;;6.40;;
422;SDS011;198;48.752;9.180;2023-06-22T02:22:38;19.43;;;6.53;;
422;SDS011;198;48.752;9.180;2023-06-22T02:25:03;17.17;;;7.70;;
422;SDS011;198;48.752;9.180;2023-06-22T02:27:29;16.60;;;7.40;;
422;SDS011;198;48.752;9.180;2023-06-22T02:29:55;18.73;;;7.73;;
422;SDS011;198;48.752;9.180;2023-06-22T02:32:21;21.50;;;7.23;;
422;SDS011;198;48.752;9.180;2023-06-22T02:34:47;18.10;;;7.73;;
422;SDS011;198;48.752;9.180;2023-06-22T02:37:16;18.40;;;7.50;;
422;SDS011;198;48.752;9.180;2023-06-22T02:39:41;15.13;;;7.00;;
422;SDS011;198;48.752;9.180;2023-06-22T02:42:07;10.20;;;6.50;;
422;SDS011;198;48.752;9.180;2023-06-22T02:44:33;13.47;;;7.17;;
422;SDS011;198;48.752;9.180;2023-06-22T02:46:58;10.50;;;6.07;;
422;SDS011;198;48.752;9.180;2023-06-22T02:49:24;13.53;;;6.10;;
422;SDS011;198;48.752;9.180;2023-06-22T02:51:50;15.83;;;8.47;;
422;SDS011;198;48.752;9.180;2023-06-22T02:54:15;13.30;;;7.43;;
422;SDS011;198;48.752;9.180;2023-06-22T02:56:41;9.53;;;5.90;;
422;SDS011;198;48.752;9.180;2023-06-22T02:59:10;11.53;;;6.30;;
422;SDS011;198;48.752;9.180;2023-06-22T03:01:36;12.70;;;6.80;;
422;SDS011;198;48.752;9.180;2023-06-22T03:04:08;13.27;;;6.83;;
422;SDS011;198;48.752;9.180;2023-06-22T03:06:34;14.27;;;6.23;;
422;SDS011;198;48.752;9.180;2023-06-22T03:09:01;12.20;;;6.50;;
422;SDS011;198;48.752;9.180;2023-06-22T03:11:33;11.87;;;6.30;;
422;SDS011;198;48.752;9.180;2023-06-22T03:13:59;13.80;;;6.00;;
422;SDS011;198;48.752;9.180;2023-06-22T03:16:25;11.80;;;6.10;;
422;SDS011;198;48.752;9.180;2023-06-22T03:18:51;12.77;;;6.23;;
422;SDS011;198;48.752;9.180;2023-06-22T03:21:18;13.03;;;6.00;;
422;SDS011;198;48.752;9.180;2023-06-22T03:23:44;12.00;;;6.33;;
422;SDS011;198;48.752;9.180;2023-06-22T03:26:09;15.20;;;7.00;;
422;SDS011;198;48.752;9.180;2023-06-22T03:28:35;14.37;;;7.57;;
422;SDS011;198;48.752;9.180;2023-06-22T03:31:02;14.40;;;8.30;;
422;SDS011;198;48.752;9.180;2023-06-22T03:33:29;10.77;;;7.60;;
422;SDS011;198;48.752;9.180;2023-06-22T03:35:54;12.30;;;7.40;;
422;SDS011;198;48.752;9.180;2023-06-22T03:38:20;17.10;;;8.33;;
422;SDS011;198;48.752;9.180;2023-06-22T03:40:46;12.30;;;6.50;;
422;SDS011;198;48.752;9.180;2023-06-22T03:43:11;14.50;;;7.70;;
422;SDS011;198;48.752;9.180;2023-06-22T03:45:37;14.13;;;6.77;;
422;SDS011;198;48.752;9.180;2023-06-22T03:48:03;10.17;;;6.77;;
422;SDS011;198;48.752;9.180;2023-06-22T03:50:28;14.87;;;7.53;;
422;SDS011;198;48.752;9.180;2023-06-22T03:52:55;21.40;;;9.53;;
422;SDS011;198;48.752;9.180;2023-06-22T03:55:20;13.10;;;7.50;;
422;SDS011;198;48.752;9.180;2023-06-22T03:57:46;13.70;;;7.70;;
422;SDS011;198;48.752;9.180;2023-06-22T04:00:11;13.10;;;6.70;;
422;SDS011;198;48.752;9.180;2023-06-22T04:02:37;13.23;;;5.60;;
422;SDS011;198;48.752;9.180;2023-06-22T04:05:03;12.90;;;7.00;;
422;SDS011;198;48.752;9.180;2023-06-22T04:07:29;14.73;;;7.53;;
422;SDS011;198;48.752;9.180;2023-06-22T04:09:55;15.90;;;6.63;;
422;SDS011;198;48.752;9.180;2023-06-22T04:12:20;17.33;;;7.13;;
422;SDS011;198;48.752;9.180;2023-06-22T04:14:46;10.20;;;6.33;;
422;SDS011;198;48.752;9.180;2023-06-22T04:17:11;31.03;;;8.03;;
422;SDS011;198;48.752;9.180;2023-06-22T04:19:39;10.20;;;5.80;;
422;SDS011;198;48.752;9.180;2023-06-22T04:22:04;11.13;;;5.80;;
422;SDS011;198;48.752;9.180;2023-06-22T04:24:32;17.80;;;7.00;;
422;SDS011;198;48.752;9.180;2023-06-22T04:26:58;13.77;;;5.67;;
422;SDS011;198;48.752;9.180;2023-06-22T04:29:27;10.07;;;5.43;;
422;SDS011;198;48.752;9.180;2023-06-22T04:31:55;12.57;;;6.20;;
422;SDS011;198;48.752;9.180;2023-06-22T04:34:30;13.33;;;6.33;;
422;SDS011;198;48.752;9.180;2023-06-22T04:36:55;10.37;;;6.13;;
422;SDS011;198;48.752;9.180;2023-06-22T04:39:21;15.10;;;5.90;;
422;SDS011;198;48.752;9.180;2023-06-22T04:41:46;11.27;;;5.40;;
422;SDS011;198;48.752;9.180;2023-06-22T04:44:13;10.37;;;6.10;;
422;SDS011;198;48.752;9.180;2023-06-22T04:46:55;13.67;;;5.50;;
422;SDS011;198;48.752;9.180;2023-06-22T04:49:33;13.23;;;6.10;;
422;SDS011;198;48.752;9.180;2023-06-22T04:52:03;10.47;;;6.13;;
422;SDS011;198;48.752;9.180;2023-06-22T04:54:33;11.87;;;5.53;;
422;SDS011;198;48.752;9.180;2023-06-22T04:57:00;10.23;;;6.00;;
422;SDS011;198;48.752;9.180;2023-06-22T04:59:27;11.80;;;5.80;;
422;SDS011;198;48.752;9.180;2023-06-22T05:01:58;11.17;;;5.33;;
422;SDS011;198;48.752;9.180;2023-06-22T05:04:25;11.80;;;6.43;;
422;SDS011;198;48.752;9.180;2023-06-22T05:06:52;11.93;;;5.47;;
422;SDS011;198;48.752;9.180;2023-06-22T05:09:18;11.13;;;6.57;;
422;SDS011;198;48.752;9.180;2023-06-22T05:11:44;11.43;;;6.63;;
422;SDS011;198;48.752;9.180;2023-06-22T05:14:10;14.83;;;6.20;;
422;SDS011;198;48.752;9.180;2023-06-22T05:16:38;12.20;;;6.07;;
422;SDS011;198;48.752;9.180;2023-06-22T05:19:05;11.07;;;6.23;;
422;SDS011;198;48.752;9.180;2023-06-22T05:21:32;9.93;;;5.60;;
422;SDS011;198;48.752;9.180;2023-06-22T05:23:57;14.57;;;4.83;;
422;SDS011;198;48.752;9.180;2023-06-22T05:26:34;9.90;;;6.20;;
422;SDS011;198;48.752;9.180;2023-06-22T05:29:00;9.53;;;5.00;;
422;SDS011;198;48.752;9.180;2023-06-22T05:31:27;8.73;;;5.33;;
422;SDS011;198;48.752;9.180;2023-06-22T05:33:53;9.60;;;5.50;;
422;SDS011;198;48.752;9.180;2023-06-22T05:36:19;11.23;;;5.90;;
422;SDS011;198;48.752;9.180;2023-06-22T05:38:47;9.47;;;4.47;;
422;SDS011;198;48.752;9.180;2023-06-22T05:41:13;8.50;;;4.77;;
422;SDS011;198;48.752;9.180;2023-06-22T05:43:39;9.90;;;4.80;;
422;SDS011;198;48.752;9.180;2023-06-22T05:46:05;15.87;;;5.57;;
422;SDS011;198;48.752;9.180;2023-06-22T05:48:30;7.43;;;5.00;;
422;SDS011;198;48.752;9.180;2023-06-22T05:50:56;10.40;;;5.17;;
422;SDS011;198;48.752;9.180;2023-06-22T05:53:22;10.90;;;5.20;;
422;SDS011;198;48.752;9.180;2023-06-22T05:55:48;11.47;;;5.60;;
422;SDS011;198;48.752;9.180;2023-06-22T05:58:14;10.83;;;5.57;;
422;SDS011;198;48.752;9.180;2023-06-22T06:00:40;9.77;;;5.03;;
422;SDS011;198;48.752;9.180;2023-06-22T06:03:09;26.60;;;6.77;;
422;SDS011;198;48.752;9.180;2023-06-22T06:05:35;13.37;;;5.37;;
422;SDS011;198;48.752;9.180;2023-06-22T06:08:02;7.20;;;4.70;;
422;SDS011;198;48.752;9.180;2023-06-22T06:10:33;13.73;;;5.20;;
422;SDS011;198;48.752;9.180;2023-06-22T06:13:00;9.90;;;4.60;;
422;SDS011;198;48.752;9.180;2023-06-22T06:15:27;11.00;;;5.30;;
422;SDS011;198;48.752;9.180;2023-06-22T06:17:53;6.00;;;4.20;;
422;SDS011;198;48.752;9.180;2023-06-22T06:20:20;8.07;;;4.73;;
422;SDS011;198;48.752;9.180;2023-06-22T06:22:47;8.07;;;4.00;;
422;SDS011;198;48.752;9.180;2023-06-22T06:25:13;9.03;;;4.53;;
422;SDS011;198;48.752;9.180;2023-06-22T06:27:41;8.70;;;4.57;;
422;SDS011;198;48.752;9.180;2023-06-22T06:30:08;10.00;;;4.13;;
422;SDS011;198;48.752;9.180;2023-06-22T06:32:34;7.70;;;4.80;;
422;SDS011;198;48.752;9.180;2023-06-22T06:34:59;6.83;;;4.20;;
422;SDS011;198;48.752;9.180;2023-06-22T06:37:25;7.50;;;4.47;;
422;SDS011;198;48.752;9.180;2023-06-22T06:39:50;7.63;;;4.90;;
422;SDS011;198;48.752;9.180;2023-06-22T06:42:16;10.10;;;4.27;;
422;SDS011;198;48.752;9.180;2023-06-22T06:44:41;11.00;;;5.43;;
422;SDS011;198;48.752;9.180;2023-06-22T06:47:07;6.30;;;4.10;;
422;SDS011;198;48.752;9.180;2023-06-22T06:49:33;9.13;;;4.13;;
422;SDS011;198;48.752;9.180;2023-06-22T06:51:58;9.90;;;5.23;;
422;SDS011;198;48.752;9.180;2023-06-22T06:54:24;9.13;;;5.10;;
422;SDS011;198;48.752;9.180;2023-06-22T06:56:49;8.97;;;4.37;;
422;SDS011;198;48.752;9.180;2023-06-22T06:59:15;10.17;;;4.60;;
422;SDS011;198;48.752;9.180;2023-06-22T07:01:41;16.77;;;4.90;;
422;SDS011;198;48.752;9.180;2023-06-22T07:04:09;13.70;;;4.37;;
422;SDS011;198;48.752;9.180;2023-06-22T07:06:34;10.40;;;4.00;;
422;SDS011;198;48.752;9.180;2023-06-22T07:09:00;13.30;;;4.20;;
422;SDS011;198;48.752;9.180;2023-06-22T07:11:26;9.47;;;4.37;;
422;SDS011;198;48.752;9.180;2023-06-22T07:13:52;4.93;;;3.40;;
422;SDS011;198;48.752;9.180;2023-06-22T07:16:18;10.60;;;4.17;;
422;SDS011;198;48.752;9.180;2023-06-22T07:18:43;16.47;;;4.27;;
422;SDS011;198;48.752;9.180;2023-06-22T07:21:09;8.30;;;4.57;;
422;SDS011;198;48.752;9.180;2023-06-22T07:23:34;14.00;;;4.80;;
422;SDS011;198;48.752;9.180;2023-06-22T07:26:00;8.07;;;4.60;;
422;SDS011;198;48.752;9.180;2023-06-22T07:28:31;11.03;;;5.60;;
422;SDS011;198;48.752;9.180;2023-06-22T07:31:01;11.63;;;5.33;;
422;SDS011;198;48.752;9.180;2023-06-22T07:33:28;17.47;;;5.73;;
422;SDS011;198;48.752;9.180;2023-06-22T07:35:53;9.00;;;5.00;;
422;SDS011;198;48.752;9.180;2023-06-22T07:38:19;9.03;;;3.77;;
422;SDS011;198;48.752;9.180;2023-06-22T07:40:45;14.87;;;5.00;;
422;SDS011;198;48.752;9.180;2023-06-22T07:43:10;15.63;;;5.10;;
422;SDS011;198;48.752;9.180;2023-06-22T07:45:37;15.60;;;4.47;;
422;SDS011;198;48.752;9.180;2023-06-22T07:48:04;10.80;;;4.17;;
422;SDS011;198;48.752;9.180;2023-06-22T07:50:30;9.10;;;4.33;;
422;SDS011;198;48.752;9.180;2023-06-22T07:52:56;7.67;;;4.33;;
422;SDS011;198;48.752;9.180;2023-06-22T07:55:21;8.27;;;4.40;;
422;SDS011;198;48.752;9.180;2023-06-22T07:57:49;10.40;;;4.47;;
422;SDS011;198;48.752;9.180;2023-06-22T08:00:16;13.73;;;4.80;;
422;SDS011;198;48.752;9.180;2023-06-22T08:02:43;10.20;;;3.53;;
422;SDS011;198;48.752;9.180;2023-06-22T08:05:10;16.97;;;3.83;;
422;SDS011;198;48.752;9.180;2023-06-22T08:07:36;10.80;;;4.00;;
422;SDS011;198;48.752;9.180;2023-06-22T08:10:02;12.80;;;4.50;;
422;SDS011;198;48.752;9.180;2023-06-22T08:12:29;8.90;;;4.87;;
422;SDS011;198;48.752;9.180;2023-06-22T08:14:54;9.00;;;4.70;;
422;SDS011;198;48.752;9.180;2023-06-22T08:17:21;11.57;;;4.57;;
422;SDS011;198;48.752;9.180;2023-06-22T08:19:47;8.00;;;3.90;;
422;SDS011;198;48.752;9.180;2023-06-22T08:22:13;17.47;;;4.43;;
422;SDS011;198;48.752;9.180;2023-06-22T08:24:38;18.73;;;4.63;;
422;SDS011;198;48.752;9.180;2023-06-22T08:27:06;9.47;;;4.30;;
422;SDS011;198;48.752;9.180;2023-06-22T08:29:34;9.27;;;4.37;;
422;SDS011;198;48.752;9.180;2023-06-22T08:32:00;13.60;;;4.20;;
422;SDS011;198;48.752;9.180;2023-06-22T08:34:25;7.20;;;4.10;;
422;SDS011;198;48.752;9.180;2023-06-22T08:36:52;13.27;;;3.70;;
422;SDS011;198;48.752;9.180;2023-06-22T08:39:19;10.80;;;3.43;;
422;SDS011;198;48.752;9.180;2023-06-22T08:41:45;20.60;;;4.73;;
422;SDS011;198;48.752;9.180;2023-06-22T08:44:12;9.90;;;5.17;;
422;SDS011;198;48.752;9.180;2023-06-22T08:46:37;15.70;;;4.40;;
422;SDS011;198;48.752;9.180;2023-06-22T08:49:03;10.43;;;4.37;;
422;SDS011;198;48.752;9.180;2023-06-22T08:51:29;24.07;;;4.90;;
422;SDS011;198;48.752;9.180;2023-06-22T08:53:54;11.00;;;4.00;;
422;SDS011;198;48.752;9.180;2023-06-22T08:56:20;10.00;;;4.50;;
422;SDS011;198;48.752;9.180;2023-06-22T08:58:45;17.97;;;5.60;;
422;SDS011;198;48.752;9.180;2023-06-22T09:01:11;11.40;;;4.60;;
422;SDS011;198;48.752;9.180;2023-06-22T09:03:37;9.90;;;4.60;;
422;SDS011;198;48.752;9.180;2023-06-22T09:06:02;21.80;;;5.43;;
422;SDS011;198;48.752;9.180;2023-06-22T09:08:28;10.17;;;4.20;;
422;SDS011;198;48.752;9.180;2023-06-22T09:10:54;8.53;;;4.47;;
422;SDS011;198;48.752;9.180;2023-06-22T09:13:19;10.87;;;4.10;;
422;SDS011;198;48.752;9.180;2023-06-22T09:15:45;11.20;;;4.97;;
422;SDS011;198;48.752;9.180;2023-06-22T09:18:10;8.27;;;4.03;;
422;SDS011;198;48.752;9.180;2023-06-22T09:20:36;7.03;;;3.70;;
422;SDS011;198;48.752;9.180;2023-06-22T09:23:02;12.33;;;4.40;;
422;SDS011;198;48.752;9.180;2023-06-22T09:25:27;8.87;;;4.80;;
422;SDS011;198;48.752;9.180;2023-06-22T09:27:53;13.57;;;4.77;;
422;SDS011;198;48.752;9.180;2023-06-22T09:30:18;19.37;;;5.87;;
422;SDS011;198;48.752;9.180;2023-06-22T09:32:44;9.30;;;4.17;;
422;SDS011;198;48.752;9.180;2023-06-22T09:35:09;12.97;;;5.10;;
422;SDS011;198;48.752;9.180;2023-06-22T09:37:37;12.70;;;4.57;;
422;SDS011;198;48.752;9.180;2023-06-22T09:40:03;15.53;;;5.03;;
422;SDS011;198;48.752;9.180;2023-06-22T09:42:33;19.27;;;5.50;;
422;SDS011;198;48.752;9.180;2023-06-22T09:44:59;7.70;;;3.70;;
422;SDS011;198;48.752;9.180;2023-06-22T09:47:26;23.63;;;5.23;;
422;SDS011;198;48.752;9.180;2023-06-22T09:49:52;12.93;;;4.50;;
422;SDS011;198;48.752;9.180;2023-06-22T09:52:19;12.80;;;5.40;;
422;SDS011;198;48.752;9.180;2023-06-22T09:54:44;8.23;;;4.03;;
422;SDS011;198;48.752;9.180;2023-06-22T09:57:10;9.80;;;4.50;;
422;SDS011;198;48.752;9.180;2023-06-22T09:59:35;13.93;;;5.43;;
422;SDS011;198;48.752;9.180;2023-06-22T10:02:01;12.40;;;6.17;;
422;SDS011;198;48.752;9.180;2023-06-22T10:04:26;14.63;;;5.10;;
422;SDS011;198;48.752;9.180;2023-06-22T10:06:52;9.00;;;4.93;;
422;SDS011;198;48.752;9.180;2023-06-22T10:09:18;20.33;;;6.23;;
422;SDS011;198;48.752;9.180;2023-06-22T10:11:43;22.13;;;4.97;;
422;SDS011;198;48.752;9.180;2023-06-22T10:14:09;14.60;;;5.20;;
422;SDS011;198;48.752;9.180;2023-06-22T10:16:35;12.17;;;5.53;;
422;SDS011;198;48.752;9.180;2023-06-22T10:19:01;10.10;;;4.03;;
422;SDS011;198;48.752;9.180;2023-06-22T10:21:27;12.77;;;3.63;;
422;SDS011;198;48.752;9.180;2023-06-22T10:23:53;14.33;;;4.87;;
422;SDS011;198;48.752;9.180;2023-06-22T10:26:19;13.40;;;5.33;;
422;SDS011;198;48.752;9.180;2023-06-22T10:28:44;15.90;;;5.33;;
422;SDS011;198;48.752;9.180;2023-06-22T10:31:10;11.43;;;4.50;;
422;SDS011;198;48.752;9.180;2023-06-22T10:33:35;13.27;;;4.13;;
422;SDS011;198;48.752;9.180;2023-06-22T10:36:01;14.90;;;4.63;;
422;SDS011;198;48.752;9.180;2023-06-22T10:38:26;16.30;;;5.20;;
422;SDS011;198;48.752;9.180;2023-06-22T10:40:52;11.27;;;3.70;;
422;SDS011;198;48.752;9.180;2023-06-22T10:43:17;11.17;;;5.10;;
422;SDS011;198;48.752;9.180;2023-06-22T10:45:43;7.77;;;4.10;;
422;SDS011;198;48.752;9.180;2023-06-22T10:48:08;10.37;;;5.00;;
422;SDS011;198;48.752;9.180;2023-06-22T10:50:34;11.37;;;4.30;;
422;SDS011;198;48.752;9.180;2023-06-22T10:52:59;9.07;;;4.23;;
422;SDS011;198;48.752;9.180;2023-06-22T10:55:25;12.60;;;4.23;;
422;SDS011;198;48.752;9.180;2023-06-22T10:57:50;5.70;;;3.90;;
422;SDS011;198;48.752;9.180;2023-06-22T11:00:17;13.57;;;3.97;;
422;SDS011;198;48.752;9.180;2023-06-22T11:02:43;12.30;;;4.47;;
422;SDS011;198;48.752;9.180;2023-06-22T11:05:08;13.67;;;4.87;;
422;SDS011;198;48.752;9.180;2023-06-22T11:07:34;13.60;;;4.60;;
422;SDS011;198;48.752;9.180;2023-06-22T11:09:59;14.80;;;5.60;;
422;SDS011;198;48.752;9.180;2023-06-22T11:12:25;8.70;;;4.43;;
422;SDS011;198;48.752;9.180;2023-06-22T11:14:50;11.30;;;4.27;;
422;SDS011;198;48.752;9.180;2023-06-22T11:17:16;11.40;;;4.57;;
422;SDS011;198;48.752;9.180;2023-06-22T11:19:43;11.40;;;5.30;;
422;SDS011;198;48.752;9.180;2023-06-22T11:22:09;14.50;;;4.90;;
422;SDS011;198;48.752;9.180;2023-06-22T11:24:35;17.33;;;4.67;;
422;SDS011;198;48.752;9.180;2023-06-22T11:27:00;12.90;;;4.17;;
422;SDS011;198;48.752;9.180;2023-06-22T11:29:26;9.90;;;4.80;;
422;SDS011;198;48.752;9.180;2023-06-22T11:31:51;12.80;;;4.77;;
422;SDS011;198;48.752;9.180;2023-06-22T11:34:17;21.97;;;4.77;;
422;SDS011;198;48.752;9.180;2023-06-22T11:36:44;14.63;;;5.10;;
422;SDS011;198;48.752;9.180;2023-06-22T11:39:10;10.17;;;4.20;;
422;SDS011;198;48.752;9.180;2023-06-22T11:41:35;17.23;;;5.53;;
422;SDS011;198;48.752;9.180;2023-06-22T11:44:01;10.00;;;4.07;;
422;SDS011;198;48.752;9.180;2023-06-22T11:46:26;10.30;;;4.37;;
422;SDS011;198;48.752;9.180;2023-06-22T11:48:52;17.17;;;5.57;;
422;SDS011;198;48.752;9.180;2023-06-22T11:51:17;19.70;;;5.40;;
422;SDS011;198;48.752;9.180;2023-06-22T11:53:43;11.07;;;4.37;;
422;SDS011;198;48.752;9.180;2023-06-22T11:56:08;19.73;;;5.40;;
422;SDS011;198;48.752;9.180;2023-06-22T11:58:34;11.23;;;4.57;;
422;SDS011;198;48.752;9.180;2023-06-22T12:00:59;15.13;;;4.77;;
422;SDS011;198;48.752;9.180;2023-06-22T12:03:25;5.67;;;3.97;;
422;SDS011;198;48.752;9.180;2023-06-22T12:05:50;11.80;;;4.57;;
422;SDS011;198;48.752;9.180;2023-06-22T12:08:19;24.17;;;6.10;;
422;SDS011;198;48.752;9.180;2023-06-22T12:10:44;10.27;;;4.87;;
422;SDS011;198;48.752;9.180;2023-06-22T12:13:10;8.40;;;4.93;;
422;SDS011;198;48.752;9.180;2023-06-22T12:15:35;15.40;;;5.27;;
422;SDS011;198;48.752;9.180;2023-06-22T12:18:01;13.10;;;4.60;;
422;SDS011;198;48.752;9.180;2023-06-22T12:20:27;10.23;;;4.30;;
422;SDS011;198;48.752;9.180;2023-06-22T12:22:52;12.50;;;4.80;;
422;SDS011;198;48.752;9.180;2023-06-22T12:25:20;15.30;;;5.57;;
422;SDS011;198;48.752;9.180;2023-06-22T12:27:46;14.10;;;5.60;;
422;SDS011;198;48.752;9.180;2023-06-22T12:30:11;15.73;;;5.90;;
422;SDS011;198;48.752;9.180;2023-06-22T12:32:37;18.30;;;5.97;;
422;SDS011;198;48.752;9.180;2023-06-22T12:35:03;14.40;;;6.33;;
422;SDS011;198;48.752;9.180;2023-06-22T12:37:29;18.40;;;5.77;;
422;SDS011;198;48.752;9.180;2023-06-22T12:39:56;16.43;;;4.53;;
422;SDS011;198;48.752;9.180;2023-06-22T12:42:22;8.97;;;5.50;;
422;SDS011;198;48.752;9.180;2023-06-22T12:44:47;16.27;;;5.80;;
422;SDS011;198;48.752;9.180;2023-06-22T12:47:13;9.53;;;5.17;;
422;SDS011;198;48.752;9.180;2023-06-22T12:49:38;18.37;;;4.90;;
422;SDS011;198;48.752;9.180;2023-06-22T12:52:13;13.17;;;6.00;;
422;SDS011;198;48.752;9.180;2023-06-22T12:54:39;20.20;;;5.43;;
422;SDS011;198;48.752;9.180;2023-06-22T12:57:04;7.23;;;4.93;;
422;SDS011;198;48.752;9.180;2023-06-22T12:59:30;19.30;;;5.77;;
422;SDS011;198;48.752;9.180;2023-06-22T13:01:55;9.80;;;4.33;;
422;SDS011;198;48.752;9.180;2023-06-22T13:04:21;15.90;;;5.83;;
422;SDS011;198;48.752;9.180;2023-06-22T13:06:47;9.07;;;4.27;;
422;SDS011;198;48.752;9.180;2023-06-22T13:09:13;31.10;;;5.87;;
422;SDS011;198;48.752;9.180;2023-06-22T13:11:39;10.60;;;5.10;;
422;SDS011;198;48.752;9.180;2023-06-22T13:14:05;11.33;;;4.43;;
422;SDS011;198;48.752;9.180;2023-06-22T13:16:31;10.63;;;5.60;;
422;SDS011;198;48.752;9.180;2023-06-22T13:18:56;19.23;;;5.30;;
422;SDS011;198;48.752;9.180;2023-06-22T13:21:22;18.50;;;4.83;;
422;SDS011;198;48.752;9.180;2023-06-22T13:23:47;19.70;;;5.83;;
422;SDS011;198;48.752;9.180;2023-06-22T13:26:13;15.93;;;4.73;;
422;SDS011;198;48.752;9.180;2023-06-22T13:28:38;8.20;;;4.27;;
422;SDS011;198;48.752;9.180;2023-06-22T13:31:04;15.67;;;4.83;;
422;SDS011;198;48.752;9.180;2023-06-22T13:33:29;8.97;;;4.80;;
422;SDS011;198;48.752;9.180;2023-06-22T13:35:55;8.13;;;4.33;;
422;SDS011;198;48.752;9.180;2023-06-22T13:38:20;13.20;;;5.00;;
422;SDS011;198;48.752;9.180;2023-06-22T13:40:47;14.00;;;5.00;;
422;SDS011;198;48.752;9.180;2023-06-22T13:43:13;12.63;;;4.90;;
422;SDS011;198;48.752;9.180;2023-06-22T13:45:38;15.20;;;4.80;;
422;SDS011;198;48.752;9.180;2023-06-22T13:48:04;14.23;;;3.70;;
422;SDS011;198;48.752;9.180;2023-06-22T13:50:30;9.00;;;4.40;;
422;SDS011;198;48.752;9.180;2023-06-22T13:52:55;10.93;;;4.70;;
422;SDS011;198;48.752;9.180;2023-06-22T13:55:21;10.50;;;4.57;;
422;SDS011;198;48.752;9.180;2023-06-22T13:57:48;11.03;;;4.73;;
422;SDS011;198;48.752;9.180;2023-06-22T14:00:13;10.20;;;4.37;;
422;SDS011;198;48.752;9.180;2023-06-22T14:02:39;14.73;;;4.67;;
422;SDS011;198;48.752;9.180;2023-06-22T14:05:06;18.10;;;5.03;;
422;SDS011;198;48.752;9.180;2023-06-22T14:07:32;17.70;;;4.33;;
422;SDS011;198;48.752;9.180;2023-06-22T14:09:57;9.27;;;4.03;;
422;SDS011;198;48.752;9.180;2023-06-22T14:12:23;12.40;;;3.60;;
422;SDS011;198;48.752;9.180;2023-06-22T14:14:49;15.93;;;4.20;;
422;SDS011;198;48.752;9.180;2023-06-22T14:17:14;7.83;;;3.73;;
422;SDS011;198;48.752;9.180;2023-06-22T14:19:40;9.80;;;3.70;;
422;SDS011;198;48.752;9.180;2023-06-22T14:22:05;15.13;;;4.63;;
422;SDS011;198;48.752;9.180;2023-06-22T14:24:31;21.30;;;5.17;;
422;SDS011;198;48.752;9.180;2023-06-22T14:26:57;16.60;;;4.43;;
422;SDS011;198;48.752;9.180;2023-06-22T14:29:22;13.63;;;4.67;;
422;SDS011;198;48.752;9.180;2023-06-22T14:31:48;8.60;;;3.43;;
422;SDS011;198;48.752;9.180;2023-06-22T14:34:14;12.10;;;3.50;;
422;SDS011;198;48.752;9.180;2023-06-22T14:36:40;8.13;;;3.53;;
422;SDS011;198;48.752;9.180;2023-06-22T14:39:06;8.43;;;3.60;;
422;SDS011;198;48.752;9.180;2023-06-22T14:41:32;6.47;;;3.30;;
422;SDS011;198;48.752;9.180;2023-06-22T14:43:57;9.27;;;3.00;;
422;SDS011;198;48.752;9.180;2023-06-22T14:46:23;10.67;;;3.50;;
422;SDS011;198;48.752;9.180;2023-06-22T14:48:48;7.70;;;2.90;;
422;SDS011;198;48.752;9.180;2023-06-22T14:51:14;15.80;;;3.47;;
422;SDS011;198;48.752;9.180;2023-06-22T14:53:40;14.53;;;3.10;;
422;SDS011;198;48.752;9.180;2023-06-22T14:56:06;16.83;;;3.20;;
422;SDS011;198;48.752;9.180;2023-06-22T14:58:33;11.20;;;3.60;;
422;SDS011;198;48.752;9.180;2023-06-22T15:00:59;8.50;;;2.33;;
422;SDS011;198;48.752;9.180;2023-06-22T15:03:25;9.67;;;2.60;;
422;SDS011;198;48.752;9.180;2023-06-22T15:05:53;13.83;;;3.77;;
422;SDS011;198;48.752;9.180;2023-06-22T15:08:19;13.37;;;3.43;;
422;SDS011;198;48.752;9.180;2023-06-22T15:10:44;13.77;;;3.93;;
422;SDS011;198;48.752;9.180;2023-06-22T15:13:10;7.10;;;2.77;;
422;SDS011;198;48.752;9.180;2023-06-22T15:15:35;11.70;;;3.53;;
422;SDS011;198;48.752;9.180;2023-06-22T15:18:01;10.87;;;3.07;;
422;SDS011;198;48.752;9.180;2023-06-22T15:20:27;12.40;;;4.30;;
422;SDS011;198;48.752;9.180;2023-06-22T15:22:52;14.47;;;3.23;;
422;SDS011;198;48.752;9.180;2023-06-22T15:25:18;12.80;;;3.03;;
422;SDS011;198;48.752;9.180;2023-06-22T15:27:43;12.90;;;3.43;;
422;SDS011;198;48.752;9.180;2023-06-22T15:30:09;11.30;;;3.10;;
422;SDS011;198;48.752;9.180;2023-06-22T15:32:35;13.83;;;3.27;;
422;SDS011;198;48.752;9.180;2023-06-22T15:35:00;9.50;;;2.60;;
422;SDS011;198;48.752;9.180;2023-06-22T15:37:26;14.07;;;3.27;;
422;SDS011;198;48.752;9.180;2023-06-22T15:39:51;13.77;;;3.47;;